createdAt,value
2019-03-28T00:01:08.991Z,10.57
2019-03-28T00:03:39.329Z,10.10
2019-03-28T00:06:09.736Z,10.60
2019-03-28T00:08:40.177Z,10.40
2019-03-28T00:11:10.885Z,11.47
2019-03-28T00:13:41.335Z,10.03
2019-03-28T00:16:12.087Z,11.43
2019-03-28T00:18:42.552Z,9.87
2019-03-28T00:21:13.093Z,10.03
2019-03-28T00:23:52.218Z,9.53
2019-03-28T00:26:30.043Z,10.70
2019-03-28T00:28:54.809Z,9.77
2019-03-28T00:31:25.285Z,10.23
2019-03-28T00:33:55.721Z,9.80
2019-03-28T00:36:25.335Z,10.00
2019-03-28T00:38:55.609Z,9.57
2019-03-28T00:41:26.080Z,9.77
2019-03-28T00:43:56.530Z,9.63
2019-03-28T00:46:26.148Z,10.17
2019-03-28T00:48:56.502Z,9.60
2019-03-28T00:51:26.912Z,10.03
2019-03-28T00:53:56.491Z,9.93
2019-03-28T00:56:27.432Z,11.33
2019-03-28T00:58:58.063Z,11.03
2019-03-28T01:01:28.644Z,10.40
2019-03-28T01:03:59.108Z,10.10
2019-03-28T01:06:29.610Z,9.90
2019-03-28T01:09:00.061Z,10.30
2019-03-28T01:11:30.531Z,10.53
2019-03-28T01:14:01.276Z,9.70
2019-03-28T01:16:31.818Z,10.03
2019-03-28T01:19:01.506Z,10.43
2019-03-28T01:21:33.181Z,10.07
2019-03-28T01:24:03.588Z,10.87
2019-03-28T01:26:34.495Z,9.33
2019-03-28T01:29:04.932Z,10.80
2019-03-28T01:31:34.553Z,9.10
2019-03-28T01:34:04.893Z,10.27
2019-03-28T01:36:35.301Z,10.37
2019-03-28T01:39:06.886Z,10.63
2019-03-28T01:41:37.349Z,10.07
2019-03-28T01:44:07.793Z,9.83
2019-03-28T01:46:38.289Z,11.63
2019-03-28T01:49:08.746Z,10.43
2019-03-28T01:51:39.250Z,9.87
2019-03-28T01:54:09.705Z,10.57
2019-03-28T01:56:40.229Z,9.90
2019-03-28T01:59:10.698Z,10.87
2019-03-28T02:01:40.373Z,10.53
2019-03-28T02:04:10.126Z,10.53
2019-03-28T02:06:40.497Z,11.00
2019-03-28T02:09:11.055Z,9.50
2019-03-28T02:11:41.557Z,11.10
2019-03-28T02:14:11.153Z,10.97
2019-03-28T02:16:41.692Z,10.73
2019-03-28T02:19:11.276Z,10.33
2019-03-28T02:21:40.728Z,10.77
2019-03-28T02:24:11.049Z,10.90
2019-03-28T02:26:41.568Z,10.77
2019-03-28T02:29:12.073Z,10.40
2019-03-28T02:31:43.109Z,10.73
2019-03-28T02:34:13.764Z,10.17
2019-03-28T02:36:44.261Z,10.87
2019-03-28T02:39:14.759Z,10.50
2019-03-28T02:41:45.276Z,12.13
2019-03-28T02:44:14.992Z,12.47
2019-03-28T02:46:44.514Z,11.10
2019-03-28T02:49:14.886Z,11.40
2019-03-28T02:51:45.400Z,10.87
2019-03-28T02:54:14.913Z,10.77
2019-03-28T02:56:45.372Z,10.60
2019-03-28T02:59:15.832Z,11.43
2019-03-28T03:01:46.308Z,11.53
2019-03-28T03:04:16.791Z,10.70
2019-03-28T03:06:47.414Z,11.33
2019-03-28T03:09:16.985Z,10.80
2019-03-28T03:11:47.390Z,10.60
2019-03-28T03:14:17.805Z,11.50
2019-03-28T03:16:48.759Z,10.57
2019-03-28T03:19:20.391Z,11.33
2019-03-28T03:21:50.883Z,11.27
2019-03-28T03:24:20.851Z,11.47
2019-03-28T03:26:50.384Z,11.70
2019-03-28T03:29:20.717Z,11.27
2019-03-28T03:31:53.505Z,11.20
2019-03-28T03:34:23.694Z,10.73
2019-03-28T03:36:54.190Z,10.83
2019-03-28T03:39:24.665Z,12.27
2019-03-28T03:41:55.191Z,10.93
2019-03-28T03:44:25.684Z,11.80
2019-03-28T03:46:56.120Z,11.27
2019-03-28T03:49:26.616Z,11.33
2019-03-28T03:51:57.104Z,10.20
2019-03-28T03:54:26.717Z,10.40
2019-03-28T03:56:57.192Z,12.77
2019-03-28T03:59:26.793Z,11.87
2019-03-28T04:01:57.294Z,11.23
2019-03-28T04:04:27.763Z,11.63
2019-03-28T04:06:59.352Z,11.17
2019-03-28T04:09:29.016Z,12.00
2019-03-28T04:11:59.376Z,12.63
2019-03-28T04:14:29.905Z,11.03
2019-03-28T04:17:00.394Z,11.13
2019-03-28T04:19:29.978Z,11.87
2019-03-28T04:22:00.421Z,12.03
2019-03-28T04:24:30.079Z,12.30
2019-03-28T04:27:00.471Z,11.60
2019-03-28T04:29:30.619Z,11.50
2019-03-28T04:32:01.202Z,11.87
2019-03-28T04:34:31.034Z,11.57
2019-03-28T04:37:00.813Z,11.67
2019-03-28T04:39:31.170Z,13.20
2019-03-28T04:42:01.616Z,12.17
2019-03-28T04:44:32.128Z,12.30
2019-03-28T04:47:01.715Z,11.13
2019-03-28T04:49:32.093Z,12.27
2019-03-28T04:52:02.479Z,13.23
2019-03-28T04:54:32.119Z,12.83
2019-03-28T04:57:01.614Z,13.57
2019-03-28T04:59:31.124Z,12.00
2019-03-28T05:02:03.709Z,13.77
2019-03-28T05:04:33.738Z,13.80
2019-03-28T05:07:04.215Z,12.93
2019-03-28T05:09:33.810Z,12.97
2019-03-28T05:12:04.166Z,14.07
2019-03-28T05:14:34.707Z,12.87
2019-03-28T05:17:05.214Z,13.90
2019-03-28T05:19:35.701Z,15.17
2019-03-28T05:22:05.295Z,13.37
2019-03-28T05:24:35.671Z,14.67
2019-03-28T05:27:06.106Z,14.07
2019-03-28T05:29:35.724Z,13.27
2019-03-28T05:32:05.230Z,15.23
2019-03-28T05:34:35.554Z,14.80
2019-03-28T05:37:06.175Z,13.43
2019-03-28T05:39:36.686Z,14.87
2019-03-28T05:42:08.581Z,13.67
2019-03-28T05:44:38.173Z,14.43
2019-03-28T05:47:08.593Z,14.83
2019-03-28T05:49:39.065Z,14.63
2019-03-28T05:52:11.543Z,13.47
2019-03-28T05:54:40.855Z,14.33
2019-03-28T05:57:10.417Z,12.83
2019-03-28T05:59:40.758Z,13.17
2019-03-28T06:02:11.259Z,14.73
2019-03-28T06:04:40.901Z,14.03
2019-03-28T06:07:11.313Z,12.60
2019-03-28T06:09:41.819Z,12.97
2019-03-28T06:12:12.281Z,13.33
2019-03-28T06:14:41.835Z,13.93
2019-03-28T06:17:12.195Z,13.40
2019-03-28T06:19:42.748Z,14.30
2019-03-28T06:22:13.518Z,13.50
2019-03-28T06:24:44.260Z,13.97
2019-03-28T06:27:14.211Z,13.23
2019-03-28T06:29:44.658Z,12.93
2019-03-28T06:32:14.290Z,14.97
2019-03-28T06:34:43.809Z,12.83
2019-03-28T06:37:14.218Z,13.93
2019-03-28T06:39:43.812Z,13.13
2019-03-28T06:42:14.193Z,12.47
2019-03-28T06:44:44.653Z,13.00
2019-03-28T06:47:15.190Z,14.03
2019-03-28T06:49:45.673Z,12.87
2019-03-28T06:52:16.490Z,13.57
2019-03-28T06:54:47.038Z,14.07
2019-03-28T06:57:18.849Z,13.27
2019-03-28T06:59:48.642Z,14.07
2019-03-28T07:02:18.226Z,15.07
2019-03-28T07:04:47.674Z,15.33
2019-03-28T07:07:18.596Z,14.03
2019-03-28T07:09:49.373Z,13.63
2019-03-28T07:12:18.935Z,13.63
2019-03-28T07:14:49.359Z,15.57
2019-03-28T07:17:19.852Z,14.53
2019-03-28T07:19:52.204Z,14.13
2019-03-28T07:22:21.798Z,14.57
2019-03-28T07:24:52.113Z,15.43
2019-03-28T07:27:22.587Z,15.03
2019-03-28T07:29:53.181Z,14.07
2019-03-28T07:32:23.795Z,13.50
2019-03-28T07:34:54.208Z,14.40
2019-03-28T07:37:27.848Z,14.10
2019-03-28T07:39:55.869Z,15.07
2019-03-28T07:42:25.328Z,16.63
2019-03-28T07:44:55.702Z,15.63
2019-03-28T07:47:25.351Z,13.77
2019-03-28T07:49:56.053Z,13.20
2019-03-28T07:52:27.522Z,14.40
2019-03-28T07:54:58.168Z,14.10
2019-03-28T07:57:28.604Z,12.83
2019-03-28T08:00:04.549Z,13.97
2019-03-28T08:02:31.428Z,12.90
2019-03-28T08:05:01.787Z,12.93
2019-03-28T08:07:44.222Z,12.50
2019-03-28T08:10:04.593Z,12.67
2019-03-28T08:12:35.010Z,9.33
2019-03-28T08:15:06.249Z,11.07
2019-03-28T08:17:36.714Z,12.10
2019-03-28T08:20:08.178Z,9.87
2019-03-28T08:22:38.689Z,10.50
2019-03-28T08:25:11.935Z,10.70
2019-03-28T08:27:41.264Z,10.53
2019-03-28T08:30:18.206Z,10.80
2019-03-28T08:32:43.013Z,11.40
2019-03-28T08:35:14.397Z,10.83
2019-03-28T08:37:44.801Z,9.80
2019-03-28T08:40:32.322Z,9.83
2019-03-28T08:43:01.929Z,9.87
2019-03-28T08:45:32.234Z,9.53
2019-03-28T08:48:02.810Z,10.40
2019-03-28T08:50:33.307Z,9.20
2019-03-28T08:53:02.913Z,9.00
2019-03-28T08:55:33.218Z,8.80
2019-03-28T08:58:04.085Z,9.63
2019-03-28T09:00:50.465Z,8.77
2019-03-28T09:03:06.991Z,9.70
2019-03-28T09:05:37.467Z,8.87
2019-03-28T09:08:07.968Z,8.80
2019-03-28T09:10:38.406Z,7.77
2019-03-28T09:13:08.934Z,8.67
2019-03-28T09:15:44.110Z,8.90
2019-03-28T09:18:11.584Z,10.20
2019-03-28T09:20:42.058Z,8.07
2019-03-28T09:23:12.589Z,7.33
2019-03-28T09:25:43.075Z,7.50
2019-03-28T09:28:13.625Z,8.17
2019-03-28T09:30:48.948Z,8.40
2019-03-28T09:33:15.781Z,7.30
2019-03-28T09:35:46.451Z,8.27
2019-03-28T09:38:16.565Z,7.60
2019-03-28T09:40:47.128Z,8.10
2019-03-28T09:43:16.619Z,7.97
2019-03-28T09:45:47.025Z,8.57
2019-03-28T09:48:16.633Z,8.20
2019-03-28T09:50:47.169Z,7.77
2019-03-28T09:53:17.661Z,7.60
2019-03-28T09:55:48.062Z,7.57
2019-03-28T09:58:18.551Z,7.90
2019-03-28T10:01:02.263Z,7.77
2019-03-28T10:03:21.172Z,7.67
2019-03-28T10:05:51.647Z,7.60
2019-03-28T10:08:22.153Z,6.73
2019-03-28T10:10:52.660Z,6.90
2019-03-28T10:13:23.145Z,7.93
2019-03-28T10:15:52.737Z,8.50
2019-03-28T10:18:23.164Z,8.30
2019-03-28T10:20:53.669Z,7.93
2019-03-28T10:23:23.310Z,8.77
2019-03-28T10:25:53.766Z,8.10
2019-03-28T10:28:23.548Z,9.30
2019-03-28T10:30:53.876Z,8.20
2019-03-28T10:33:24.671Z,7.60
2019-03-28T10:35:54.635Z,8.60
2019-03-28T10:38:24.158Z,7.43
2019-03-28T10:40:53.700Z,6.40
2019-03-28T10:43:24.149Z,7.17
2019-03-28T10:45:53.885Z,7.20
2019-03-28T10:48:23.619Z,7.30
2019-03-28T10:50:53.158Z,9.07
2019-03-28T10:53:22.703Z,8.37
2019-03-28T10:55:53.154Z,8.33
2019-03-28T10:58:22.783Z,8.33
2019-03-28T11:00:54.749Z,8.53
2019-03-28T11:03:24.655Z,9.50
2019-03-28T11:05:55.165Z,8.30
2019-03-28T11:08:24.863Z,6.50
2019-03-28T11:10:55.291Z,6.83
2019-03-28T11:13:25.805Z,7.40
2019-03-28T11:15:55.429Z,6.87
2019-03-28T11:18:24.961Z,7.50
2019-03-28T11:20:55.373Z,6.30
2019-03-28T11:23:25.972Z,6.60
2019-03-28T11:25:57.459Z,6.80
2019-03-28T11:28:27.542Z,6.70
2019-03-28T11:30:57.957Z,5.53
2019-03-28T11:33:28.501Z,4.70
2019-03-28T11:35:59.391Z,5.97
2019-03-28T11:38:29.141Z,6.60
2019-03-28T11:40:59.546Z,6.90
2019-03-28T11:43:30.097Z,7.53
2019-03-28T11:46:00.994Z,6.90
2019-03-28T11:48:31.657Z,7.90
2019-03-28T11:51:02.175Z,7.00
2019-03-28T11:53:32.714Z,8.50
2019-03-28T11:56:03.497Z,8.77
2019-03-28T11:58:34.042Z,8.40
2019-03-28T12:01:03.740Z,8.27
2019-03-28T12:03:33.322Z,8.83
2019-03-28T12:06:03.875Z,8.23
2019-03-28T12:08:33.551Z,7.77
2019-03-28T12:11:03.087Z,8.67
2019-03-28T12:13:44.234Z,9.30
2019-03-28T12:16:05.113Z,8.83
2019-03-28T12:18:34.781Z,8.30
2019-03-28T12:21:05.414Z,8.13
2019-03-28T12:23:35.069Z,8.57
2019-03-28T12:26:04.598Z,8.33
2019-03-28T12:28:35.167Z,8.00
2019-03-28T12:31:05.675Z,7.53
2019-03-28T12:33:35.416Z,8.83
2019-03-28T12:36:06.021Z,8.23
2019-03-28T12:38:36.541Z,8.37
2019-03-28T12:41:08.549Z,8.83
2019-03-28T12:43:39.250Z,8.93
2019-03-28T12:46:09.795Z,8.30
2019-03-28T12:48:39.476Z,8.93
2019-03-28T12:51:09.890Z,9.13
2019-03-28T12:53:39.536Z,9.57
2019-03-28T12:56:09.977Z,8.30
2019-03-28T12:58:40.505Z,8.77
2019-03-28T13:01:11.444Z,9.50
2019-03-28T13:03:45.673Z,9.73
2019-03-28T13:06:14.085Z,8.80
2019-03-28T13:08:44.632Z,8.80
2019-03-28T13:11:15.202Z,7.93
2019-03-28T13:13:44.835Z,8.30
2019-03-28T13:16:14.413Z,8.67
2019-03-28T13:18:44.948Z,8.23
2019-03-28T13:21:15.432Z,8.63
2019-03-28T13:23:45.138Z,7.63
2019-03-28T13:26:14.688Z,6.97
2019-03-28T13:28:45.335Z,8.13
2019-03-28T13:31:16.301Z,7.77
2019-03-28T13:33:47.339Z,7.60
2019-03-28T13:36:17.773Z,8.27
2019-03-28T13:38:48.596Z,7.97
2019-03-28T13:41:19.136Z,8.07
2019-03-28T13:43:48.820Z,8.20
2019-03-28T13:46:19.262Z,8.53
2019-03-28T13:48:49.916Z,6.63
2019-03-28T13:51:19.569Z,7.50
2019-03-28T13:53:52.077Z,6.73
2019-03-28T13:56:21.229Z,7.20
2019-03-28T13:58:51.673Z,6.63
2019-03-28T14:01:22.678Z,7.33
2019-03-28T14:03:53.349Z,7.63
2019-03-28T14:06:24.247Z,7.57
2019-03-28T14:08:54.820Z,7.57
2019-03-28T14:11:25.430Z,6.90
2019-03-28T14:13:56.070Z,7.77
2019-03-28T14:16:26.598Z,7.87
2019-03-28T14:18:57.150Z,7.77
2019-03-28T14:21:26.820Z,7.07
2019-03-28T14:23:57.366Z,6.43
2019-03-28T14:26:26.984Z,6.50
2019-03-28T14:28:57.538Z,6.57
2019-03-28T14:31:28.069Z,6.63
2019-03-28T14:33:58.585Z,6.77
2019-03-28T14:36:29.159Z,5.90
2019-03-28T14:38:58.845Z,6.60
2019-03-28T14:41:29.250Z,6.83
2019-03-28T14:43:59.823Z,6.13
2019-03-28T14:46:30.332Z,6.70
2019-03-28T14:49:00.890Z,6.97
2019-03-28T14:51:30.509Z,6.87
2019-03-28T14:54:00.950Z,5.73
2019-03-28T14:56:31.654Z,4.80
2019-03-28T14:59:03.873Z,5.43
2019-03-28T15:01:33.487Z,5.40
2019-03-28T15:04:03.946Z,4.70
2019-03-28T15:06:34.448Z,5.47
2019-03-28T15:09:07.787Z,5.17
2019-03-28T15:11:38.589Z,5.17
2019-03-28T15:14:09.134Z,5.20
2019-03-28T15:16:39.634Z,5.33
2019-03-28T15:19:10.154Z,4.87
2019-03-28T15:21:40.691Z,4.40
2019-03-28T15:24:11.256Z,3.47
2019-03-28T15:26:40.909Z,4.40
2019-03-28T15:29:10.444Z,3.70
2019-03-28T15:31:40.926Z,3.77
2019-03-28T15:34:11.447Z,4.20
2019-03-28T15:36:42.168Z,3.67
2019-03-28T15:39:12.727Z,4.13
2019-03-28T15:41:43.395Z,3.90
2019-03-28T15:44:13.956Z,4.37
2019-03-28T15:46:43.581Z,4.10
2019-03-28T15:49:14.010Z,4.67
2019-03-28T15:51:44.624Z,4.73
2019-03-28T15:54:15.854Z,5.13
2019-03-28T15:56:45.663Z,4.77
2019-03-28T15:59:16.086Z,4.53
2019-03-28T16:01:46.858Z,4.00
2019-03-28T16:04:17.476Z,4.67
2019-03-28T16:06:47.997Z,4.77
2019-03-28T16:09:18.530Z,4.53
2019-03-28T16:12:01.694Z,4.50
2019-03-28T16:14:19.458Z,4.50
2019-03-28T16:16:50.105Z,4.80
2019-03-28T16:19:19.716Z,4.40
2019-03-28T16:21:50.148Z,4.33
2019-03-28T16:24:20.053Z,4.43
2019-03-28T16:26:50.507Z,4.93
2019-03-28T16:29:20.124Z,5.17
2019-03-28T16:31:51.661Z,5.33
2019-03-28T16:34:22.261Z,5.07
2019-03-28T16:36:51.905Z,5.37
2019-03-28T16:39:22.309Z,5.40
2019-03-28T16:41:52.837Z,5.43
2019-03-28T16:44:22.468Z,5.27
2019-03-28T16:46:52.879Z,5.80
2019-03-28T16:49:23.550Z,5.47
2019-03-28T16:51:54.067Z,5.23
2019-03-28T16:54:24.747Z,5.47
2019-03-28T16:56:55.257Z,5.47
2019-03-28T16:59:25.829Z,5.03
2019-03-28T17:01:56.335Z,5.40
2019-03-28T17:04:25.986Z,6.03
2019-03-28T17:06:55.785Z,5.40
2019-03-28T17:09:25.346Z,5.20
2019-03-28T17:11:54.912Z,5.77
2019-03-28T17:14:26.278Z,5.60
2019-03-28T17:16:57.075Z,5.40
2019-03-28T17:19:26.700Z,5.50
2019-03-28T17:21:57.174Z,5.70
2019-03-28T17:24:28.126Z,5.77
2019-03-28T17:26:59.031Z,5.50
2019-03-28T17:29:29.534Z,5.57
2019-03-28T17:32:00.077Z,5.60
2019-03-28T17:34:35.035Z,6.53
2019-03-28T17:37:01.885Z,6.13
2019-03-28T17:39:32.287Z,6.53
2019-03-28T17:42:05.945Z,5.73
2019-03-28T17:44:34.188Z,5.97
2019-03-28T17:47:04.833Z,6.00
2019-03-28T17:49:34.502Z,5.73
2019-03-28T17:52:04.064Z,5.83
2019-03-28T17:54:34.507Z,6.00
2019-03-28T17:57:05.056Z,6.77
2019-03-28T17:59:35.627Z,7.53
2019-03-28T18:02:05.303Z,6.37
2019-03-28T18:04:47.481Z,5.97
2019-03-28T18:07:07.146Z,6.57
2019-03-28T18:09:38.000Z,5.60
2019-03-28T18:12:08.713Z,6.17
2019-03-28T18:14:38.358Z,5.80
2019-03-28T18:17:08.831Z,4.97
2019-03-28T18:19:39.345Z,5.53
2019-03-28T18:22:09.004Z,5.13
2019-03-28T18:24:38.579Z,4.47
2019-03-28T18:27:09.301Z,5.33
2019-03-28T18:29:38.929Z,4.20
2019-03-28T18:32:11.160Z,3.77
2019-03-28T18:34:41.630Z,3.67
2019-03-28T18:37:12.214Z,3.43
2019-03-28T18:39:43.052Z,3.57
2019-03-28T18:42:12.717Z,4.00
2019-03-28T18:44:43.117Z,2.77
2019-03-28T18:47:13.715Z,3.33
2019-03-28T18:49:44.274Z,3.43
2019-03-28T18:52:14.950Z,2.90
2019-03-28T18:54:45.490Z,2.83
2019-03-28T18:57:16.031Z,2.93
2019-03-28T18:59:45.644Z,2.83
2019-03-28T19:02:16.064Z,3.47
2019-03-28T19:04:45.687Z,2.63
2019-03-28T19:07:16.133Z,3.07
2019-03-28T19:09:46.616Z,2.60
2019-03-28T19:12:18.071Z,2.53
2019-03-28T19:14:48.584Z,3.20
2019-03-28T19:17:18.230Z,2.60
2019-03-28T19:19:48.638Z,2.60
2019-03-28T19:22:19.205Z,2.40
2019-03-28T19:24:49.733Z,2.47
2019-03-28T19:27:20.313Z,3.00
2019-03-28T19:29:49.961Z,2.60
2019-03-28T19:32:20.545Z,2.90
2019-03-28T19:34:51.099Z,2.40
2019-03-28T19:37:22.890Z,3.10
2019-03-28T19:39:53.869Z,3.23
2019-03-28T19:42:24.388Z,2.80
2019-03-28T19:44:55.619Z,2.90
2019-03-28T19:47:28.552Z,3.17
2019-03-28T19:49:58.265Z,3.27
2019-03-28T19:52:28.783Z,3.27
2019-03-28T19:54:59.322Z,3.07
2019-03-28T19:57:29.906Z,3.77
2019-03-28T20:00:00.455Z,3.17
2019-03-28T20:02:30.455Z,3.70
2019-03-28T20:05:01.034Z,4.77
2019-03-28T20:07:31.493Z,4.57
2019-03-28T20:10:01.239Z,3.83
2019-03-28T20:12:31.784Z,4.43
2019-03-28T20:15:02.591Z,3.73
2019-03-28T20:17:33.101Z,4.57
2019-03-28T20:20:02.731Z,3.97
2019-03-28T20:22:33.655Z,4.63
2019-03-28T20:25:03.295Z,4.53
2019-03-28T20:27:33.816Z,4.57
2019-03-28T20:30:03.451Z,4.10
2019-03-28T20:32:34.224Z,4.43
2019-03-28T20:35:04.949Z,4.87
2019-03-28T20:37:34.585Z,4.37
2019-03-28T20:40:05.562Z,4.00
2019-03-28T20:42:35.428Z,4.77
2019-03-28T20:45:06.689Z,5.73
2019-03-28T20:47:37.207Z,4.80
2019-03-28T20:50:07.363Z,4.90
2019-03-28T20:52:38.004Z,5.57
2019-03-28T20:55:08.763Z,4.23
2019-03-28T20:57:40.396Z,4.70
2019-03-28T21:00:11.105Z,5.20
2019-03-28T21:02:40.622Z,4.90
2019-03-28T21:05:10.588Z,4.80
2019-03-28T21:07:40.989Z,5.23
2019-03-28T21:10:14.733Z,4.77
2019-03-28T21:12:45.137Z,5.47
2019-03-28T21:15:14.832Z,5.27
2019-03-28T21:17:44.350Z,5.60
2019-03-28T21:20:13.888Z,5.43
2019-03-28T21:22:44.403Z,6.17
2019-03-28T21:25:14.036Z,5.33
2019-03-28T21:27:44.446Z,5.40
2019-03-28T21:30:14.239Z,4.87
2019-03-28T21:32:54.699Z,5.07
2019-03-28T21:35:16.642Z,5.67
2019-03-28T21:37:46.266Z,6.00
2019-03-28T21:40:15.801Z,6.13
2019-03-28T21:42:45.210Z,6.33
2019-03-28T21:45:15.942Z,6.20
2019-03-28T21:47:45.503Z,6.20
2019-03-28T21:50:16.709Z,5.57
2019-03-28T21:52:46.339Z,6.30
2019-03-28T21:55:16.936Z,6.27
2019-03-28T21:57:47.918Z,5.73
2019-03-28T22:00:19.323Z,7.17
2019-03-28T22:02:48.949Z,5.37
2019-03-28T22:05:19.375Z,6.93
2019-03-28T22:07:48.968Z,5.60
2019-03-28T22:10:19.398Z,6.40
2019-03-28T22:12:49.029Z,5.80
2019-03-28T22:15:19.407Z,5.70
2019-03-28T22:17:49.006Z,5.87
2019-03-28T22:20:18.529Z,6.23
2019-03-28T22:22:49.001Z,6.30
2019-03-28T22:25:19.496Z,6.00
2019-03-28T22:27:49.272Z,6.30
2019-03-28T22:30:19.839Z,6.97
2019-03-28T22:32:50.381Z,6.77
2019-03-28T22:35:20.811Z,5.87
2019-03-28T22:37:50.436Z,6.37
2019-03-28T22:40:20.822Z,6.03
2019-03-28T22:42:50.437Z,5.60
2019-03-28T22:45:21.143Z,6.13
2019-03-28T22:47:51.673Z,6.17
2019-03-28T22:50:21.193Z,6.83
2019-03-28T22:52:50.633Z,6.40
2019-03-28T22:55:21.034Z,6.93
2019-03-28T22:57:53.828Z,6.53
2019-03-28T23:00:23.617Z,6.67
2019-03-28T23:02:54.871Z,6.87
2019-03-28T23:05:24.512Z,7.03
2019-03-28T23:07:53.944Z,6.97
2019-03-28T23:10:23.652Z,6.77
2019-03-28T23:12:53.149Z,6.83
2019-03-28T23:15:22.633Z,8.20
2019-03-28T23:17:52.101Z,7.27
2019-03-28T23:20:21.676Z,7.33
2019-03-28T23:22:51.151Z,7.10
2019-03-28T23:25:21.829Z,7.40
2019-03-28T23:27:52.737Z,6.73
2019-03-28T23:30:22.440Z,7.20
2019-03-28T23:32:51.978Z,7.77
2019-03-28T23:35:21.509Z,7.33
2019-03-28T23:37:51.029Z,7.43
2019-03-28T23:40:20.581Z,7.20
2019-03-28T23:42:50.291Z,7.27
2019-03-28T23:45:20.696Z,8.57
2019-03-28T23:47:50.366Z,7.97
2019-03-28T23:50:19.933Z,6.83
2019-03-28T23:52:49.400Z,7.53
2019-03-28T23:55:19.880Z,7.60
2019-03-28T23:57:50.345Z,8.80
